Terminal Aerodrome Forecast
Issued by NWS

Home | Current Version | Previous Version | Text Only | Print | Product List | Glossary On
Versions: 1 2 3 4 5 6 7 8 9 10 11 12 13
000
FTUS45 KVEF 260520
TAFEED
TAF
KEED 260520Z 2606/2706 34008KT P6SM SCT250
     FM261500 01014G24KT P6SM SCT250
     FM262100 03010KT P6SM SCT250
     FM270300 32007KT P6SM SCT250=

USA.gov is the U.S. government's official web portal to all federal, state and local government web resources and services.